Scroll down
FLIGHT INFORMATION
American Airlines

AAL9500

At Arrival Gate

KEYW
 KMIA
DATE: 2020-10-09
GATE: 
GATE DEPARTURE: 16:42
TAKEOFF: 16:48
DATE: 2020-10-09
GATE: D32
LANDING: 17:14
GATE ARRIVAL: 17:19
FLIGHT DATA
Crew: 
Speed: 
351 kts
Altitude: 
15,066 ft
Stage Length: 
109.1 nm
Block Time: 
0.6 hrs
Flight Time: 
0.4 hrs
Fuel Used: 
3,130 lb
Cleared Route: KEYW COPRA RW08R
TRACK DATA
50,000 ft 1,000 kts
AIRCRAFT INFO AND CUMULATIVE STATS
Aircraft Type: 
B738BW
Registration: 
SELCAL: 
CKEF
MSN/LN: 
33228 / 4352
Operator: 
Total Flights: 
1
Total Block Time: 
0.6 hrs
Total Flight Time: 
0.4 hrs
Total Fuel Time: 
3,130 lb
DATALINK LOG | Newest first | Current as of: 2020-11-27 03:19:59
LABEL SEQUENCE CONTENT Dn/Up
QD045117:19 8.8▼ Dn
QC594717:14▼ Dn
GA4647GATE D32▲ Up
GR4637KMIA 17:13 HI-VAL NO DIPL/VIP NO▼ Dn
2U5214KMIA 090153Z 06006KT 10SM FEW030 28/22 A3003 RMK AO2 SLP169 T02830222▲ Up
2S3729KMIA▼ Dn
QB332616:48▼ Dn
QA272016:42 11.9▼ Dn
Q02013[LINK ACK]▲ Up
Q02013[LINK TEST]▼ Dn


AIRCRAFT HISTORY
FLIGHT DATE FLIGHT NO. ORIGIN DESTINATION CLEARED ROUTE BLOCK TIME FLIGHT TIME FUEL USED PILOT
2020-10-09AAL9500KEYW KMIA KEYW COPRA RW08R0.6 hrs0.4 hrs3,130 lbMichael Collier